createdAt,value
2023-02-03T00:02:22.499Z,97959.38
2023-02-03T00:04:49.025Z,97937.84
2023-02-03T00:07:15.605Z,97941.19
2023-02-03T00:09:42.167Z,97959.38
2023-02-03T00:12:09.177Z,97905.50
2023-02-03T00:14:38.163Z,97873.00
2023-02-03T00:17:05.217Z,97865.41
2023-02-03T00:19:31.836Z,97877.69
2023-02-03T00:21:58.357Z,97852.56
2023-02-03T00:24:25.849Z,97838.50
2023-02-03T00:26:52.397Z,97823.84
2023-02-03T00:29:21.662Z,97855.59
2023-02-03T00:31:48.384Z,97825.56
2023-02-03T00:34:15.121Z,97791.00
2023-02-03T00:36:43.042Z,97745.28
2023-02-03T00:39:09.739Z,97782.28
2023-02-03T00:41:36.309Z,97858.34
2023-02-03T00:44:02.827Z,97874.16
2023-02-03T00:46:30.468Z,97860.38
2023-02-03T00:48:56.934Z,97853.38
2023-02-03T00:51:24.702Z,97897.06
2023-02-03T00:53:52.373Z,97878.25
2023-02-03T00:56:20.033Z,97856.38
2023-02-03T00:58:46.909Z,97870.09
2023-02-03T01:01:13.684Z,97798.16
2023-02-03T01:03:40.654Z,97753.19
2023-02-03T01:06:18.276Z,97748.44
2023-02-03T01:08:44.872Z,97724.09
2023-02-03T01:11:17.348Z,97761.72
2023-02-03T01:13:45.926Z,97780.78
2023-02-03T01:16:13.839Z,97745.53
2023-02-03T01:18:41.178Z,97780.34
2023-02-03T01:21:08.617Z,97818.31
2023-02-03T01:23:35.957Z,97851.09
2023-02-03T01:26:05.130Z,97853.13
2023-02-03T01:28:32.860Z,97861.00
2023-02-03T01:31:08.806Z,97788.41
2023-02-03T01:33:35.477Z,97731.69
2023-02-03T01:36:02.302Z,97697.09
2023-02-03T01:38:28.873Z,97673.44
2023-02-03T01:40:55.389Z,97721.13
2023-02-03T01:43:30.187Z,97779.06
2023-02-03T01:45:57.284Z,97787.63
2023-02-03T01:48:24.028Z,97814.22
2023-02-03T01:50:50.563Z,97836.72
2023-02-03T01:53:17.098Z,97847.59
2023-02-03T01:55:46.193Z,97802.44
2023-02-03T01:58:15.743Z,97814.47
2023-02-03T02:00:43.745Z,97827.22
2023-02-03T02:03:10.681Z,97806.19
2023-02-03T02:05:41.797Z,97755.88
2023-02-03T02:08:10.710Z,97757.75
2023-02-03T02:10:37.375Z,97768.19
2023-02-03T02:13:05.041Z,97778.00
2023-02-03T02:15:51.857Z,97772.53
2023-02-03T02:18:25.401Z,97761.94
2023-02-03T02:20:54.964Z,97761.34
2023-02-03T02:23:23.864Z,97762.97
2023-02-03T02:25:56.632Z,97745.00
2023-02-03T02:28:35.364Z,97718.03
2023-02-03T02:31:20.628Z,97712.59
2023-02-03T02:33:55.053Z,97718.84
2023-02-03T02:36:32.513Z,97716.00
2023-02-03T02:39:07.957Z,97727.25
2023-02-03T02:41:34.477Z,97708.44
2023-02-03T02:44:09.009Z,97710.91
2023-02-03T02:46:45.971Z,97703.25
2023-02-03T02:49:39.772Z,97706.84
2023-02-03T02:52:08.904Z,97699.03
2023-02-03T02:54:39.589Z,97683.13
2023-02-03T02:57:07.946Z,97669.31
2023-02-03T02:59:34.380Z,97672.91
2023-02-03T03:02:00.893Z,97666.78
2023-02-03T03:04:29.594Z,97683.22
2023-02-03T03:07:08.604Z,97676.22
2023-02-03T03:09:40.837Z,97673.25
2023-02-03T03:12:18.028Z,97679.22
2023-02-03T03:14:48.235Z,97671.13
2023-02-03T03:17:16.982Z,97671.06
2023-02-03T03:19:47.070Z,97653.13
2023-02-03T03:22:16.282Z,97644.78
2023-02-03T03:24:48.464Z,97632.97
2023-02-03T03:27:27.710Z,97628.97
2023-02-03T03:30:02.303Z,97601.19
2023-02-03T03:32:31.815Z,97614.28
2023-02-03T03:34:59.037Z,97643.88
2023-02-03T03:37:25.517Z,97567.06
2023-02-03T03:39:55.155Z,97527.16
2023-02-03T03:42:36.521Z,97500.72
2023-02-03T03:45:02.955Z,97456.06
2023-02-03T03:47:30.746Z,97477.88
2023-02-03T03:49:59.218Z,97472.63
2023-02-03T03:52:29.341Z,97504.22
2023-02-03T03:54:57.248Z,97521.34
2023-02-03T03:57:29.948Z,97483.06
2023-02-03T03:59:56.493Z,97480.44
2023-02-03T04:02:24.597Z,97461.19
2023-02-03T04:04:52.040Z,97461.50
2023-02-03T04:07:20.029Z,97449.91
2023-02-03T04:09:46.727Z,97391.38
2023-02-03T04:12:22.726Z,97346.00
2023-02-03T04:14:49.299Z,97327.69
2023-02-03T04:17:15.878Z,97362.34
2023-02-03T04:19:43.652Z,97384.69
2023-02-03T04:22:10.109Z,97369.88
2023-02-03T04:24:38.344Z,97383.50
2023-02-03T04:27:05.438Z,97388.69
2023-02-03T04:29:32.081Z,97379.41
2023-02-03T04:31:58.701Z,97358.69
2023-02-03T04:34:25.149Z,97340.59
2023-02-03T04:36:51.593Z,97321.72
2023-02-03T04:39:18.251Z,97309.41
2023-02-03T04:41:44.760Z,97312.03
2023-02-03T04:44:11.260Z,97298.59
2023-02-03T04:46:37.773Z,97284.88
2023-02-03T04:49:04.296Z,97245.47
2023-02-03T04:51:32.090Z,97191.03
2023-02-03T04:53:58.565Z,97169.41
2023-02-03T04:56:25.068Z,97112.56
2023-02-03T04:58:51.550Z,97101.72
2023-02-03T05:01:18.167Z,97060.31
2023-02-03T05:03:45.824Z,97062.44
2023-02-03T05:06:12.332Z,97065.13
2023-02-03T05:08:38.805Z,97090.19
2023-02-03T05:11:06.583Z,97088.41
2023-02-03T05:13:33.423Z,97093.44
2023-02-03T05:15:59.926Z,97146.66
2023-02-03T05:18:27.780Z,97155.41
2023-02-03T05:20:54.329Z,97183.91
2023-02-03T05:23:23.453Z,97184.53
2023-02-03T05:25:51.259Z,97178.78
2023-02-03T05:28:17.940Z,97145.06
2023-02-03T05:30:45.805Z,97121.31
2023-02-03T05:33:12.309Z,97167.13
2023-02-03T05:35:39.036Z,97190.72
2023-02-03T05:38:05.776Z,97218.00
2023-02-03T05:40:51.111Z,97213.25
2023-02-03T05:43:17.679Z,97183.25
2023-02-03T05:45:45.574Z,97156.47
2023-02-03T05:48:12.199Z,97149.13
2023-02-03T05:50:40.331Z,97190.09
2023-02-03T05:53:07.395Z,97169.69
2023-02-03T05:55:34.105Z,97179.13
2023-02-03T05:58:01.594Z,97188.09
2023-02-03T06:00:29.024Z,97193.66
2023-02-03T06:02:57.259Z,97174.84
2023-02-03T06:05:24.263Z,97159.38
2023-02-03T06:07:52.331Z,97142.53
2023-02-03T06:10:18.855Z,97153.13
2023-02-03T06:12:45.433Z,97168.69
2023-02-03T06:15:11.984Z,97181.69
2023-02-03T06:17:38.489Z,97162.50
2023-02-03T06:20:08.710Z,97158.00
2023-02-03T06:22:35.509Z,97140.28
2023-02-03T06:25:02.449Z,97125.78
2023-02-03T06:27:28.987Z,97149.75
2023-02-03T06:29:57.034Z,97154.25
2023-02-03T06:32:23.553Z,97167.44
2023-02-03T06:34:50.036Z,97162.16
2023-02-03T06:37:16.579Z,97197.97
2023-02-03T06:39:43.053Z,97215.31
2023-02-03T06:42:09.596Z,97219.50
2023-02-03T06:44:37.415Z,97221.59
2023-02-03T06:47:04.024Z,97207.38
2023-02-03T06:49:30.626Z,97181.31
2023-02-03T06:51:57.151Z,97149.97
2023-02-03T06:54:23.666Z,97148.91
2023-02-03T06:56:50.170Z,97149.44
2023-02-03T06:59:16.714Z,97149.97
2023-02-03T07:01:43.356Z,97110.97
2023-02-03T07:04:10.240Z,97089.06
2023-02-03T07:06:37.003Z,97091.19
2023-02-03T07:09:04.352Z,97098.28
2023-02-03T07:11:32.502Z,97141.59
2023-02-03T07:13:59.261Z,97153.72
2023-02-03T07:16:28.717Z,97156.13
2023-02-03T07:18:55.320Z,97156.91
2023-02-03T07:21:21.863Z,97156.94
2023-02-03T07:23:49.926Z,97139.03
2023-02-03T07:26:17.156Z,97135.59
2023-02-03T07:28:44.821Z,97120.03
2023-02-03T07:31:11.559Z,97129.78
2023-02-03T07:33:38.811Z,97148.28
2023-02-03T07:36:05.842Z,97167.78
2023-02-03T07:38:32.371Z,97191.28
2023-02-03T07:40:58.924Z,97208.72
2023-02-03T07:43:25.448Z,97198.25
2023-02-03T07:45:53.058Z,97196.22
2023-02-03T07:48:19.586Z,97180.34
2023-02-03T07:50:47.535Z,97175.88
2023-02-03T07:53:14.010Z,97177.19
2023-02-03T07:55:40.713Z,97186.16
2023-02-03T07:58:07.291Z,97186.72
2023-02-03T08:00:34.281Z,97179.84
2023-02-03T08:03:01.096Z,97187.28
2023-02-03T08:05:27.724Z,97191.50
2023-02-03T08:07:54.192Z,97198.38
2023-02-03T08:10:20.750Z,97222.72
2023-02-03T08:12:48.190Z,97233.31
2023-02-03T08:15:14.673Z,97240.19
2023-02-03T08:17:42.154Z,97236.50
2023-02-03T08:20:10.736Z,97246.00
2023-02-03T08:22:37.246Z,97269.53
2023-02-03T08:25:04.569Z,97246.50
2023-02-03T08:27:31.540Z,97203.38
2023-02-03T08:29:57.989Z,97159.50
2023-02-03T08:32:26.357Z,97110.53
2023-02-03T08:34:53.386Z,97081.41
2023-02-03T08:37:23.792Z,97026.88
2023-02-03T08:39:50.492Z,97009.63
2023-02-03T08:42:17.573Z,97015.19
2023-02-03T08:44:44.491Z,97005.66
2023-02-03T08:47:11.385Z,96961.19
2023-02-03T08:49:41.145Z,96929.94
2023-02-03T08:52:09.971Z,96893.66
2023-02-03T08:54:38.517Z,96834.66
2023-02-03T08:57:05.121Z,96803.50
2023-02-03T08:59:31.770Z,96776.09
2023-02-03T09:01:59.948Z,96774.06
2023-02-03T09:04:26.974Z,96744.25
2023-02-03T09:06:56.943Z,96738.31
2023-02-03T09:09:25.010Z,96726.84
2023-02-03T09:11:51.586Z,96728.66
2023-02-03T09:14:19.427Z,96731.00
2023-02-03T09:16:45.922Z,96730.69
2023-02-03T09:19:13.672Z,96743.28
2023-02-03T09:21:47.459Z,96749.03
2023-02-03T09:24:15.839Z,96767.31
2023-02-03T09:26:42.833Z,96785.84
2023-02-03T09:29:09.344Z,96809.91
2023-02-03T09:31:36.022Z,96829.22
2023-02-03T09:34:03.931Z,96841.38
2023-02-03T09:36:33.045Z,96859.09
2023-02-03T09:38:59.613Z,96873.94
2023-02-03T09:41:29.247Z,96905.72
2023-02-03T09:44:04.971Z,96929.31
2023-02-03T09:46:38.080Z,96941.47
2023-02-03T09:49:16.469Z,96955.97
2023-02-03T09:51:49.490Z,96960.16
2023-02-03T09:54:19.075Z,96965.91
2023-02-03T09:56:52.354Z,96977.56
2023-02-03T09:59:19.441Z,96992.34
2023-02-03T10:01:55.345Z,97005.00
2023-02-03T10:04:27.875Z,97018.34
2023-02-03T10:07:25.558Z,97025.47
2023-02-03T10:10:03.361Z,97036.56
2023-02-03T10:12:41.888Z,97056.41
2023-02-03T10:15:28.430Z,97068.91
2023-02-03T10:17:59.462Z,97083.00
2023-02-03T10:20:38.823Z,97086.16
2023-02-03T10:23:14.165Z,97099.97
2023-02-03T10:25:43.235Z,97111.09
2023-02-03T10:28:18.311Z,97131.28
2023-02-03T10:30:48.247Z,97149.88
2023-02-03T10:33:19.079Z,97155.72
2023-02-03T10:35:49.549Z,97155.59
2023-02-03T10:38:23.393Z,97172.13
2023-02-03T10:40:49.957Z,97193.16
2023-02-03T10:43:35.073Z,97176.00
2023-02-03T10:46:01.638Z,97143.91
2023-02-03T10:48:28.408Z,97090.63
2023-02-03T10:50:57.039Z,97046.59
2023-02-03T10:53:23.504Z,97036.31
2023-02-03T10:55:52.195Z,97035.47
2023-02-03T10:58:25.965Z,97007.38
2023-02-03T11:01:07.490Z,96970.66
2023-02-03T11:03:34.022Z,96926.34
2023-02-03T11:06:05.400Z,96928.75
2023-02-03T11:08:32.637Z,96934.16
2023-02-03T11:11:03.872Z,96902.53
2023-02-03T11:13:31.770Z,96859.97
2023-02-03T11:16:01.480Z,96852.66
2023-02-03T11:18:38.490Z,96856.25
2023-02-03T11:21:20.644Z,96832.69
2023-02-03T11:23:50.285Z,96788.72
2023-02-03T11:26:19.283Z,96781.44
2023-02-03T11:28:47.975Z,96790.72
2023-02-03T11:31:23.366Z,96774.78
2023-02-03T11:33:57.310Z,96747.41
2023-02-03T11:36:26.310Z,96729.53
2023-02-03T11:38:53.838Z,96736.00
2023-02-03T11:41:23.857Z,96750.44
2023-02-03T11:43:55.739Z,96719.72
2023-02-03T11:46:23.420Z,96717.94
2023-02-03T11:49:22.339Z,96739.94
2023-02-03T11:52:09.097Z,96755.97
2023-02-03T11:54:45.070Z,96740.78
2023-02-03T11:57:17.652Z,96746.31
2023-02-03T11:59:44.075Z,96767.75
2023-02-03T12:02:20.784Z,96769.88
2023-02-03T12:05:05.967Z,96759.78
2023-02-03T12:07:51.309Z,96778.19
2023-02-03T12:10:17.871Z,96796.06
2023-02-03T12:12:50.813Z,96797.06
2023-02-03T12:15:36.111Z,96783.44
2023-02-03T12:18:17.905Z,96808.53
2023-02-03T12:20:47.219Z,96825.06
2023-02-03T12:23:13.733Z,96823.91
2023-02-03T12:26:15.761Z,96813.94
2023-02-03T12:28:46.082Z,96848.75
2023-02-03T12:31:12.844Z,96866.84
2023-02-03T12:33:45.299Z,96867.84
2023-02-03T12:36:18.910Z,96847.22
2023-02-03T12:38:52.232Z,96896.28
2023-02-03T12:41:28.902Z,96909.84
2023-02-03T12:43:59.895Z,96925.75
2023-02-03T12:46:28.704Z,96940.66
2023-02-03T12:48:58.578Z,96978.09
2023-02-03T12:51:45.253Z,97020.44
2023-02-03T12:54:14.783Z,97068.91
2023-02-03T12:56:43.664Z,97088.09
2023-02-03T12:59:20.507Z,97115.94
2023-02-03T13:01:50.794Z,97178.88
2023-02-03T13:04:31.333Z,97208.72
2023-02-03T13:07:00.885Z,97244.22
2023-02-03T13:09:31.470Z,97281.69
2023-02-03T13:12:03.761Z,97345.91
2023-02-03T13:14:36.505Z,97376.31
2023-02-03T13:17:16.375Z,97393.28
2023-02-03T13:19:48.997Z,97405.88
2023-02-03T13:22:16.593Z,97456.03
2023-02-03T13:24:47.871Z,97498.34
2023-02-03T13:27:22.337Z,97527.91
2023-02-03T13:30:04.252Z,97530.94
2023-02-03T13:32:45.212Z,97573.06
2023-02-03T13:35:34.205Z,97595.69
2023-02-03T13:38:19.672Z,97610.06
2023-02-03T13:40:46.138Z,97618.47
2023-02-03T13:43:32.036Z,97644.81
2023-02-03T13:46:04.115Z,97693.28
2023-02-03T13:48:33.371Z,97716.44
2023-02-03T13:51:08.685Z,97742.75
2023-02-03T13:53:37.723Z,97770.41
2023-02-03T13:56:05.511Z,97815.19
2023-02-03T13:58:33.283Z,97833.28
2023-02-03T14:01:02.321Z,97844.94
2023-02-03T14:03:28.817Z,97883.28
2023-02-03T14:05:58.806Z,97919.00
2023-02-03T14:08:25.275Z,97949.88
2023-02-03T14:11:10.271Z,97947.19
2023-02-03T14:13:37.972Z,97954.66
2023-02-03T14:16:24.254Z,97981.28
2023-02-03T14:18:52.259Z,97986.88
2023-02-03T14:21:21.079Z,97992.72
2023-02-03T14:23:54.994Z,97975.38
2023-02-03T14:26:24.490Z,97991.91
2023-02-03T14:28:53.702Z,98021.72
2023-02-03T14:31:23.350Z,98040.13
2023-02-03T14:33:55.914Z,98046.25
2023-02-03T14:36:29.440Z,98066.47
2023-02-03T14:38:56.524Z,98094.97
2023-02-03T14:41:30.075Z,98103.22
2023-02-03T14:44:14.887Z,98095.78
2023-02-03T14:46:53.705Z,98105.91
2023-02-03T14:49:20.713Z,98147.41
2023-02-03T14:52:03.761Z,98126.09
2023-02-03T14:54:59.571Z,98133.28
2023-02-03T14:57:35.652Z,98137.31
2023-02-03T15:00:04.852Z,98155.94
2023-02-03T15:02:32.511Z,98166.56
2023-02-03T15:05:14.349Z,98177.72
2023-02-03T15:07:45.450Z,98194.47
2023-02-03T15:10:14.930Z,98207.53
2023-02-03T15:12:48.937Z,98197.47
2023-02-03T15:15:18.678Z,98239.78
2023-02-03T15:17:45.209Z,98265.03
2023-02-03T15:20:35.372Z,98301.72
2023-02-03T15:23:03.047Z,98311.84
2023-02-03T15:25:33.007Z,98342.47
2023-02-03T15:28:21.018Z,98359.88
2023-02-03T15:30:52.434Z,98391.72
2023-02-03T15:33:22.581Z,98418.78
2023-02-03T15:35:51.860Z,98444.31
2023-02-03T15:38:22.461Z,98460.28
2023-02-03T15:40:53.419Z,98479.03
2023-02-03T15:43:26.171Z,98521.63
2023-02-03T15:45:56.823Z,98536.47
2023-02-03T15:48:39.031Z,98556.09
2023-02-03T15:51:05.662Z,98565.94
2023-02-03T15:53:46.648Z,98574.78
2023-02-03T15:56:42.272Z,98591.94
2023-02-03T15:59:22.851Z,98608.81
2023-02-03T16:01:49.575Z,98627.88
2023-02-03T16:04:17.358Z,98640.34
2023-02-03T16:06:46.614Z,98643.75
2023-02-03T16:09:31.344Z,98646.56
2023-02-03T16:12:07.960Z,98662.06
2023-02-03T16:14:35.756Z,98680.00
2023-02-03T16:17:05.916Z,98689.22
2023-02-03T16:19:38.375Z,98695.81
2023-02-03T16:22:05.178Z,98698.72
2023-02-03T16:24:32.908Z,98693.41
2023-02-03T16:27:17.981Z,98697.59
2023-02-03T16:30:03.255Z,98713.84
2023-02-03T16:32:48.313Z,98721.38
2023-02-03T16:35:34.629Z,98717.59
2023-02-03T16:38:27.056Z,98708.25
2023-02-03T16:41:12.599Z,98698.13
2023-02-03T16:43:57.566Z,98693.63
2023-02-03T16:46:42.580Z,98708.53
2023-02-03T16:49:27.788Z,98691.16
2023-02-03T16:51:54.344Z,98716.22
2023-02-03T16:54:20.887Z,98730.28
2023-02-03T16:56:47.482Z,98741.97
2023-02-03T16:59:15.134Z,98744.56
2023-02-03T17:01:41.656Z,98766.09
2023-02-03T17:04:08.345Z,98785.19
2023-02-03T17:06:37.345Z,98788.97
2023-02-03T17:09:04.066Z,98789.19
2023-02-03T17:11:30.732Z,98808.00
2023-02-03T17:13:58.772Z,98838.72
2023-02-03T17:16:26.341Z,98877.22
2023-02-03T17:18:54.072Z,98904.00
2023-02-03T17:21:23.677Z,98922.03
2023-02-03T17:23:50.533Z,98953.97
2023-02-03T17:26:17.230Z,98965.44
2023-02-03T17:28:44.084Z,99004.56
2023-02-03T17:31:13.469Z,99021.50
2023-02-03T17:33:40.639Z,99047.41
2023-02-03T17:36:11.200Z,99051.56
2023-02-03T17:55:09.637Z,99115.28
2023-02-03T17:57:39.224Z,99154.69
2023-02-03T18:00:06.356Z,99169.16
2023-02-03T18:02:32.922Z,99210.06
2023-02-03T18:05:00.742Z,99203.03
2023-02-03T18:07:27.258Z,99247.31
2023-02-03T18:09:53.713Z,99254.69
2023-02-03T18:12:20.177Z,99285.19
2023-02-03T18:14:46.628Z,99277.22
2023-02-03T18:17:13.132Z,99288.56
2023-02-03T18:19:42.737Z,99316.44
2023-02-03T18:22:12.188Z,99336.88
2023-02-03T18:24:40.950Z,99350.50
2023-02-03T18:27:07.389Z,99350.59
2023-02-03T18:29:35.228Z,99359.25
2023-02-03T18:32:01.804Z,99390.84
2023-02-03T18:34:28.398Z,99392.31
2023-02-03T18:36:54.887Z,99398.78
2023-02-03T18:39:21.377Z,99407.97
2023-02-03T18:41:48.917Z,99421.66
2023-02-03T18:44:15.382Z,99434.88
2023-02-03T18:46:41.875Z,99440.25
2023-02-03T18:49:09.442Z,99456.09
2023-02-03T18:51:35.973Z,99454.34
2023-02-03T18:54:03.485Z,99437.22
2023-02-03T18:56:36.742Z,99461.38
2023-02-03T18:59:10.737Z,99456.97
2023-02-03T19:01:38.789Z,99456.63
2023-02-03T19:04:06.059Z,99465.31
2023-02-03T19:06:33.382Z,99467.84
2023-02-03T19:09:00.387Z,99472.41
2023-02-03T19:11:28.209Z,99478.97
2023-02-03T19:13:54.754Z,99475.38
2023-02-03T19:16:21.604Z,99475.44
2023-02-03T19:18:48.195Z,99460.13
2023-02-03T19:21:14.817Z,99434.06
2023-02-03T19:23:43.620Z,99427.81
2023-02-03T19:26:10.651Z,99379.75
2023-02-03T19:28:39.042Z,99386.34
2023-02-03T19:31:08.437Z,99403.03
2023-02-03T19:33:36.750Z,99396.75
2023-02-03T19:36:03.859Z,99402.00
2023-02-03T19:38:30.386Z,99404.56
2023-02-03T19:40:57.003Z,99396.19
2023-02-03T19:43:25.350Z,99393.94
2023-02-03T19:45:51.895Z,99391.25
2023-02-03T19:48:18.461Z,99391.19
2023-02-03T19:50:46.795Z,99398.69
2023-02-03T19:53:14.000Z,99399.59
2023-02-03T19:55:41.969Z,99406.75
2023-02-03T19:58:08.480Z,99416.97
2023-02-03T20:00:35.547Z,99432.91
2023-02-03T20:03:02.389Z,99446.00
2023-02-03T20:05:29.808Z,99460.75
2023-02-03T20:07:57.523Z,99482.44
2023-02-03T20:10:26.358Z,99502.06
2023-02-03T20:12:54.845Z,99520.69
2023-02-03T20:15:21.654Z,99531.69
2023-02-03T20:17:48.206Z,99543.13
2023-02-03T20:20:15.502Z,99551.88
2023-02-03T20:22:41.981Z,99562.31
2023-02-03T20:25:11.210Z,99573.59
2023-02-03T20:27:39.483Z,99572.13
2023-02-03T20:30:06.524Z,99572.56
2023-02-03T20:32:32.999Z,99573.59
2023-02-03T20:35:00.034Z,99572.41
2023-02-03T20:37:26.565Z,99566.28
2023-02-03T20:39:53.063Z,99556.72
2023-02-03T20:42:19.677Z,99541.81
2023-02-03T20:44:46.342Z,99537.38
2023-02-03T20:47:14.074Z,99530.91
2023-02-03T20:49:40.978Z,99517.03
2023-02-03T20:52:11.461Z,99513.78
2023-02-03T20:54:39.394Z,99509.75
2023-02-03T20:57:26.124Z,99493.84
2023-02-03T20:59:52.657Z,99491.59
2023-02-03T21:02:19.212Z,99497.16
2023-02-03T21:04:57.891Z,99494.75
2023-02-03T21:07:27.051Z,99494.16
2023-02-03T21:09:55.767Z,99491.91
2023-02-03T21:12:22.348Z,99500.69
2023-02-03T21:14:49.393Z,99505.41
2023-02-03T21:17:17.698Z,99510.09
2023-02-03T21:19:44.264Z,99522.97
2023-02-03T21:22:17.419Z,99538.47
2023-02-03T21:24:55.039Z,99547.66
2023-02-03T21:27:27.522Z,99571.69
2023-02-03T21:29:55.902Z,99588.19
2023-02-03T21:32:23.422Z,99599.63
2023-02-03T21:34:50.234Z,99604.50
2023-02-03T21:37:22.825Z,99619.63
2023-02-03T21:39:49.547Z,99634.31
2023-02-03T21:42:43.198Z,99639.00
2023-02-03T21:45:33.477Z,99635.97
2023-02-03T21:48:00.469Z,99665.28
2023-02-03T21:50:26.976Z,99665.69
2023-02-03T21:52:54.844Z,99659.16
2023-02-03T21:55:21.616Z,99671.19
2023-02-03T21:57:48.747Z,99670.59
2023-02-03T22:00:34.647Z,99667.75
2023-02-03T22:03:01.797Z,99680.38
2023-02-03T22:05:29.686Z,99688.94
2023-02-03T22:07:56.243Z,99692.81
2023-02-03T22:10:22.806Z,99699.13
2023-02-03T22:12:49.267Z,99703.38
2023-02-03T22:15:15.925Z,99708.06
2023-02-03T22:17:42.369Z,99703.56
2023-02-03T22:20:10.145Z,99702.75
2023-02-03T22:22:36.740Z,99704.00
2023-02-03T22:25:03.848Z,99704.81
2023-02-03T22:27:31.864Z,99713.75
2023-02-03T22:29:58.438Z,99719.47
2023-02-03T22:32:25.025Z,99730.44
2023-02-03T22:34:51.506Z,99742.03
2023-02-03T22:37:19.332Z,99739.41
2023-02-03T22:39:46.316Z,99749.38
2023-02-03T22:42:12.862Z,99751.38
2023-02-03T22:44:39.538Z,99758.72
2023-02-03T22:47:06.052Z,99760.97
2023-02-03T22:49:32.645Z,99765.84
2023-02-03T22:51:59.101Z,99768.69
2023-02-03T22:54:25.589Z,99765.44
2023-02-03T22:56:52.081Z,99757.69
2023-02-03T22:59:19.873Z,99739.94
2023-02-03T23:01:46.338Z,99699.97
2023-02-03T23:04:12.884Z,99680.13
2023-02-03T23:06:39.597Z,99615.47
2023-02-03T23:09:06.069Z,99580.13
2023-02-03T23:11:33.493Z,99576.38
2023-02-03T23:14:01.160Z,99551.56
2023-02-03T23:16:27.793Z,99539.72
2023-02-03T23:18:54.281Z,99541.34
2023-02-03T23:21:20.783Z,99532.59
2023-02-03T23:23:48.353Z,99502.72
2023-02-03T23:26:15.933Z,99496.19
2023-02-03T23:28:43.776Z,99445.41
2023-02-03T23:31:12.171Z,99445.41
2023-02-03T23:33:38.682Z,99428.31
2023-02-03T23:36:05.445Z,99428.72
2023-02-03T23:38:33.430Z,99448.19
2023-02-03T23:40:59.912Z,99426.09
2023-02-03T23:43:26.484Z,99434.78
2023-02-03T23:45:53.014Z,99453.22
2023-02-03T23:48:19.491Z,99455.88
2023-02-03T23:50:46.076Z,99453.47
2023-02-03T23:53:12.668Z,99471.69
2023-02-03T23:55:39.103Z,99479.84
2023-02-03T23:58:05.630Z,99475.38
